sensor_id;sensor_type;location;lat;lon;timestamp;P1;durP1;ratioP1;P2;durP2;ratioP2
25351;SDS011;13304;48.464;8.712;2024-01-07T00:02:13;4.68;;;3.45;;
25351;SDS011;13304;48.464;8.712;2024-01-07T00:04:42;4.45;;;3.70;;
25351;SDS011;13304;48.464;8.712;2024-01-07T00:07:08;4.35;;;3.42;;
25351;SDS011;13304;48.464;8.712;2024-01-07T00:09:33;4.70;;;3.55;;
25351;SDS011;13304;48.464;8.712;2024-01-07T00:11:59;4.85;;;3.72;;
25351;SDS011;13304;48.464;8.712;2024-01-07T00:14:25;5.35;;;3.10;;
25351;SDS011;13304;48.464;8.712;2024-01-07T00:16:50;4.13;;;3.03;;
25351;SDS011;13304;48.464;8.712;2024-01-07T00:19:16;4.85;;;3.15;;
25351;SDS011;13304;48.464;8.712;2024-01-07T00:21:42;4.65;;;3.40;;
25351;SDS011;13304;48.464;8.712;2024-01-07T00:24:07;5.13;;;2.80;;
25351;SDS011;13304;48.464;8.712;2024-01-07T00:26:33;4.47;;;2.50;;
25351;SDS011;13304;48.464;8.712;2024-01-07T00:29:01;3.45;;;2.70;;
25351;SDS011;13304;48.464;8.712;2024-01-07T00:31:27;4.10;;;2.72;;
25351;SDS011;13304;48.464;8.712;2024-01-07T00:33:52;3.10;;;2.70;;
25351;SDS011;13304;48.464;8.712;2024-01-07T00:36:18;4.72;;;2.88;;
25351;SDS011;13304;48.464;8.712;2024-01-07T00:38:44;4.53;;;2.80;;
25351;SDS011;13304;48.464;8.712;2024-01-07T00:41:10;4.25;;;3.10;;
25351;SDS011;13304;48.464;8.712;2024-01-07T00:43:36;3.92;;;2.90;;
25351;SDS011;13304;48.464;8.712;2024-01-07T00:46:01;4.55;;;2.70;;
25351;SDS011;13304;48.464;8.712;2024-01-07T00:48:27;4.82;;;3.60;;
25351;SDS011;13304;48.464;8.712;2024-01-07T00:50:53;4.35;;;3.30;;
25351;SDS011;13304;48.464;8.712;2024-01-07T00:53:20;5.47;;;3.70;;
25351;SDS011;13304;48.464;8.712;2024-01-07T00:55:45;4.93;;;3.90;;
25351;SDS011;13304;48.464;8.712;2024-01-07T00:58:11;9.32;;;3.97;;
25351;SDS011;13304;48.464;8.712;2024-01-07T01:00:37;5.10;;;3.47;;
25351;SDS011;13304;48.464;8.712;2024-01-07T01:03:03;6.57;;;3.92;;
25351;SDS011;13304;48.464;8.712;2024-01-07T01:05:29;7.07;;;4.68;;
25351;SDS011;13304;48.464;8.712;2024-01-07T01:07:54;6.47;;;4.55;;
25351;SDS011;13304;48.464;8.712;2024-01-07T01:10:20;7.05;;;4.45;;
25351;SDS011;13304;48.464;8.712;2024-01-07T01:12:46;6.47;;;4.03;;
25351;SDS011;13304;48.464;8.712;2024-01-07T01:15:12;5.07;;;3.70;;
25351;SDS011;13304;48.464;8.712;2024-01-07T01:17:37;6.97;;;4.13;;
25351;SDS011;13304;48.464;8.712;2024-01-07T01:20:03;4.85;;;3.50;;
25351;SDS011;13304;48.464;8.712;2024-01-07T01:22:29;5.55;;;4.35;;
25351;SDS011;13304;48.464;8.712;2024-01-07T01:24:55;5.95;;;4.15;;
25351;SDS011;13304;48.464;8.712;2024-01-07T01:27:21;5.78;;;4.60;;
25351;SDS011;13304;48.464;8.712;2024-01-07T01:29:47;5.85;;;4.43;;
25351;SDS011;13304;48.464;8.712;2024-01-07T01:32:12;6.00;;;4.75;;
25351;SDS011;13304;48.464;8.712;2024-01-07T01:34:39;5.75;;;4.53;;
25351;SDS011;13304;48.464;8.712;2024-01-07T01:37:07;7.13;;;5.05;;
25351;SDS011;13304;48.464;8.712;2024-01-07T01:39:33;8.07;;;5.15;;
25351;SDS011;13304;48.464;8.712;2024-01-07T01:41:59;9.75;;;5.43;;
25351;SDS011;13304;48.464;8.712;2024-01-07T01:44:24;8.05;;;5.55;;
25351;SDS011;13304;48.464;8.712;2024-01-07T01:46:53;8.85;;;5.93;;
25351;SDS011;13304;48.464;8.712;2024-01-07T01:49:19;9.85;;;5.88;;
25351;SDS011;13304;48.464;8.712;2024-01-07T01:51:45;8.77;;;5.95;;
25351;SDS011;13304;48.464;8.712;2024-01-07T01:54:12;9.77;;;6.10;;
25351;SDS011;13304;48.464;8.712;2024-01-07T01:56:37;7.82;;;5.75;;
25351;SDS011;13304;48.464;8.712;2024-01-07T01:59:04;8.95;;;6.03;;
25351;SDS011;13304;48.464;8.712;2024-01-07T02:01:30;7.22;;;5.07;;
25351;SDS011;13304;48.464;8.712;2024-01-07T02:03:56;7.45;;;5.20;;
25351;SDS011;13304;48.464;8.712;2024-01-07T02:06:22;7.75;;;5.35;;
25351;SDS011;13304;48.464;8.712;2024-01-07T02:08:48;6.93;;;4.60;;
25351;SDS011;13304;48.464;8.712;2024-01-07T02:11:18;8.32;;;5.43;;
25351;SDS011;13304;48.464;8.712;2024-01-07T02:13:45;7.38;;;4.97;;
25351;SDS011;13304;48.464;8.712;2024-01-07T02:16:11;7.70;;;5.70;;
25351;SDS011;13304;48.464;8.712;2024-01-07T02:18:37;9.13;;;5.72;;
25351;SDS011;13304;48.464;8.712;2024-01-07T02:21:06;8.70;;;5.55;;
25351;SDS011;13304;48.464;8.712;2024-01-07T02:23:32;8.07;;;5.63;;
25351;SDS011;13304;48.464;8.712;2024-01-07T02:25:58;8.93;;;5.75;;
25351;SDS011;13304;48.464;8.712;2024-01-07T02:28:24;8.65;;;5.32;;
25351;SDS011;13304;48.464;8.712;2024-01-07T02:30:49;9.77;;;5.30;;
25351;SDS011;13304;48.464;8.712;2024-01-07T02:33:15;8.20;;;5.30;;
25351;SDS011;13304;48.464;8.712;2024-01-07T02:35:41;7.07;;;4.63;;
25351;SDS011;13304;48.464;8.712;2024-01-07T02:38:06;8.38;;;4.72;;
25351;SDS011;13304;48.464;8.712;2024-01-07T02:40:32;5.53;;;4.07;;
25351;SDS011;13304;48.464;8.712;2024-01-07T02:42:58;5.32;;;4.03;;
25351;SDS011;13304;48.464;8.712;2024-01-07T02:45:23;5.15;;;3.65;;
25351;SDS011;13304;48.464;8.712;2024-01-07T02:47:49;4.90;;;3.38;;
25351;SDS011;13304;48.464;8.712;2024-01-07T02:50:15;5.03;;;3.38;;
25351;SDS011;13304;48.464;8.712;2024-01-07T02:52:44;3.80;;;2.70;;
25351;SDS011;13304;48.464;8.712;2024-01-07T02:55:09;5.22;;;3.05;;
25351;SDS011;13304;48.464;8.712;2024-01-07T02:57:35;6.07;;;2.80;;
25351;SDS011;13304;48.464;8.712;2024-01-07T03:00:01;3.97;;;2.83;;
25351;SDS011;13304;48.464;8.712;2024-01-07T03:02:27;4.50;;;2.85;;
25351;SDS011;13304;48.464;8.712;2024-01-07T03:04:53;3.95;;;2.70;;
25351;SDS011;13304;48.464;8.712;2024-01-07T03:07:19;4.20;;;2.80;;
25351;SDS011;13304;48.464;8.712;2024-01-07T03:09:44;4.55;;;3.15;;
25351;SDS011;13304;48.464;8.712;2024-01-07T03:12:10;7.63;;;3.47;;
25351;SDS011;13304;48.464;8.712;2024-01-07T03:14:35;4.60;;;3.60;;
25351;SDS011;13304;48.464;8.712;2024-01-07T03:17:01;4.28;;;3.33;;
25351;SDS011;13304;48.464;8.712;2024-01-07T03:19:27;5.93;;;3.70;;
25351;SDS011;13304;48.464;8.712;2024-01-07T03:21:52;5.55;;;3.85;;
25351;SDS011;13304;48.464;8.712;2024-01-07T03:24:18;4.13;;;3.08;;
25351;SDS011;13304;48.464;8.712;2024-01-07T03:26:43;5.88;;;3.70;;
25351;SDS011;13304;48.464;8.712;2024-01-07T03:29:09;6.53;;;4.30;;
25351;SDS011;13304;48.464;8.712;2024-01-07T03:31:35;4.97;;;3.90;;
25351;SDS011;13304;48.464;8.712;2024-01-07T03:34:00;5.53;;;4.13;;
25351;SDS011;13304;48.464;8.712;2024-01-07T03:36:26;6.28;;;4.38;;
25351;SDS011;13304;48.464;8.712;2024-01-07T03:38:52;6.53;;;4.55;;
25351;SDS011;13304;48.464;8.712;2024-01-07T03:41:22;8.10;;;4.72;;
25351;SDS011;13304;48.464;8.712;2024-01-07T03:43:48;5.72;;;4.28;;
25351;SDS011;13304;48.464;8.712;2024-01-07T03:46:15;5.80;;;3.78;;
25351;SDS011;13304;48.464;8.712;2024-01-07T03:48:41;6.00;;;4.30;;
25351;SDS011;13304;48.464;8.712;2024-01-07T03:51:07;6.65;;;4.18;;
25351;SDS011;13304;48.464;8.712;2024-01-07T03:53:33;5.78;;;3.92;;
25351;SDS011;13304;48.464;8.712;2024-01-07T03:55:59;5.05;;;3.78;;
25351;SDS011;13304;48.464;8.712;2024-01-07T03:58:25;7.00;;;3.78;;
25351;SDS011;13304;48.464;8.712;2024-01-07T04:00:50;5.38;;;3.67;;
25351;SDS011;13304;48.464;8.712;2024-01-07T04:03:16;5.28;;;3.80;;
25351;SDS011;13304;48.464;8.712;2024-01-07T04:05:42;5.63;;;4.10;;
25351;SDS011;13304;48.464;8.712;2024-01-07T04:08:10;7.82;;;4.65;;
25351;SDS011;13304;48.464;8.712;2024-01-07T04:10:36;7.22;;;4.93;;
25351;SDS011;13304;48.464;8.712;2024-01-07T04:13:02;9.95;;;6.15;;
25351;SDS011;13304;48.464;8.712;2024-01-07T04:15:29;8.13;;;4.82;;
25351;SDS011;13304;48.464;8.712;2024-01-07T04:17:54;8.48;;;5.53;;
25351;SDS011;13304;48.464;8.712;2024-01-07T04:20:20;10.88;;;7.13;;
25351;SDS011;13304;48.464;8.712;2024-01-07T04:22:46;8.82;;;5.97;;
25351;SDS011;13304;48.464;8.712;2024-01-07T04:25:11;9.00;;;5.60;;
25351;SDS011;13304;48.464;8.712;2024-01-07T04:27:37;8.70;;;5.78;;
25351;SDS011;13304;48.464;8.712;2024-01-07T04:30:03;9.00;;;5.65;;
25351;SDS011;13304;48.464;8.712;2024-01-07T04:32:30;8.98;;;5.38;;
25351;SDS011;13304;48.464;8.712;2024-01-07T04:34:56;9.98;;;6.07;;
25351;SDS011;13304;48.464;8.712;2024-01-07T04:37:23;9.40;;;6.00;;
25351;SDS011;13304;48.464;8.712;2024-01-07T04:39:49;12.18;;;5.82;;
25351;SDS011;13304;48.464;8.712;2024-01-07T04:42:15;8.65;;;5.55;;
25351;SDS011;13304;48.464;8.712;2024-01-07T04:44:41;9.18;;;5.90;;
25351;SDS011;13304;48.464;8.712;2024-01-07T04:50:08;10.45;;;6.43;;
25351;SDS011;13304;48.464;8.712;2024-01-07T04:52:34;10.18;;;6.25;;
25351;SDS011;13304;48.464;8.712;2024-01-07T04:55:00;10.27;;;6.85;;
25351;SDS011;13304;48.464;8.712;2024-01-07T04:57:25;10.75;;;6.47;;
25351;SDS011;13304;48.464;8.712;2024-01-07T04:59:51;13.25;;;7.32;;
25351;SDS011;13304;48.464;8.712;2024-01-07T05:02:17;13.07;;;7.28;;
25351;SDS011;13304;48.464;8.712;2024-01-07T05:04:43;11.50;;;7.28;;
25351;SDS011;13304;48.464;8.712;2024-01-07T05:07:09;11.93;;;7.57;;
25351;SDS011;13304;48.464;8.712;2024-01-07T05:09:34;11.25;;;7.07;;
25351;SDS011;13304;48.464;8.712;2024-01-07T05:12:00;13.43;;;7.78;;
25351;SDS011;13304;48.464;8.712;2024-01-07T05:14:26;12.30;;;7.00;;
25351;SDS011;13304;48.464;8.712;2024-01-07T05:16:53;10.93;;;6.75;;
25351;SDS011;13304;48.464;8.712;2024-01-07T05:19:19;11.23;;;7.13;;
25351;SDS011;13304;48.464;8.712;2024-01-07T05:21:45;12.25;;;7.03;;
25351;SDS011;13304;48.464;8.712;2024-01-07T05:24:11;12.60;;;7.30;;
25351;SDS011;13304;48.464;8.712;2024-01-07T05:26:41;12.82;;;6.97;;
25351;SDS011;13304;48.464;8.712;2024-01-07T05:29:07;10.82;;;6.45;;
25351;SDS011;13304;48.464;8.712;2024-01-07T05:31:33;11.00;;;6.47;;
25351;SDS011;13304;48.464;8.712;2024-01-07T05:33:58;9.85;;;6.47;;
25351;SDS011;13304;48.464;8.712;2024-01-07T05:36:24;9.00;;;5.03;;
25351;SDS011;13304;48.464;8.712;2024-01-07T05:38:50;6.82;;;4.20;;
25351;SDS011;13304;48.464;8.712;2024-01-07T05:41:15;8.18;;;4.43;;
25351;SDS011;13304;48.464;8.712;2024-01-07T05:43:41;7.05;;;4.65;;
25351;SDS011;13304;48.464;8.712;2024-01-07T05:46:07;7.50;;;5.13;;
25351;SDS011;13304;48.464;8.712;2024-01-07T05:48:42;7.05;;;5.05;;
25351;SDS011;13304;48.464;8.712;2024-01-07T05:51:15;9.45;;;5.15;;
25351;SDS011;13304;48.464;8.712;2024-01-07T05:53:42;7.15;;;4.80;;
25351;SDS011;13304;48.464;8.712;2024-01-07T05:56:08;9.43;;;5.68;;
25351;SDS011;13304;48.464;8.712;2024-01-07T05:58:34;9.70;;;5.97;;
25351;SDS011;13304;48.464;8.712;2024-01-07T06:01:03;12.95;;;7.32;;
25351;SDS011;13304;48.464;8.712;2024-01-07T06:03:28;10.48;;;6.13;;
25351;SDS011;13304;48.464;8.712;2024-01-07T06:05:54;11.65;;;7.70;;
25351;SDS011;13304;48.464;8.712;2024-01-07T06:08:20;17.63;;;11.32;;
25351;SDS011;13304;48.464;8.712;2024-01-07T06:10:45;11.45;;;8.07;;
25351;SDS011;13304;48.464;8.712;2024-01-07T06:13:11;14.10;;;8.02;;
25351;SDS011;13304;48.464;8.712;2024-01-07T06:15:37;16.67;;;9.20;;
25351;SDS011;13304;48.464;8.712;2024-01-07T06:18:03;21.85;;;11.90;;
25351;SDS011;13304;48.464;8.712;2024-01-07T06:20:28;12.55;;;7.80;;
25351;SDS011;13304;48.464;8.712;2024-01-07T06:22:54;20.33;;;11.13;;
25351;SDS011;13304;48.464;8.712;2024-01-07T06:25:20;18.70;;;10.73;;
25351;SDS011;13304;48.464;8.712;2024-01-07T06:27:45;18.25;;;11.13;;
25351;SDS011;13304;48.464;8.712;2024-01-07T06:30:11;27.90;;;21.42;;
25351;SDS011;13304;48.464;8.712;2024-01-07T06:32:37;15.52;;;10.18;;
25351;SDS011;13304;48.464;8.712;2024-01-07T06:35:03;10.93;;;7.53;;
25351;SDS011;13304;48.464;8.712;2024-01-07T06:37:29;12.15;;;7.72;;
25351;SDS011;13304;48.464;8.712;2024-01-07T06:39:55;13.13;;;8.60;;
25351;SDS011;13304;48.464;8.712;2024-01-07T06:42:23;12.35;;;8.35;;
25351;SDS011;13304;48.464;8.712;2024-01-07T06:44:49;12.93;;;7.78;;
25351;SDS011;13304;48.464;8.712;2024-01-07T06:47:14;10.90;;;7.45;;
25351;SDS011;13304;48.464;8.712;2024-01-07T06:49:40;13.15;;;8.00;;
25351;SDS011;13304;48.464;8.712;2024-01-07T06:52:06;10.90;;;7.10;;
25351;SDS011;13304;48.464;8.712;2024-01-07T06:54:32;8.88;;;6.18;;
25351;SDS011;13304;48.464;8.712;2024-01-07T06:56:58;11.15;;;6.60;;
25351;SDS011;13304;48.464;8.712;2024-01-07T06:59:23;10.43;;;6.43;;
25351;SDS011;13304;48.464;8.712;2024-01-07T07:01:49;10.95;;;7.32;;
25351;SDS011;13304;48.464;8.712;2024-01-07T07:04:15;11.13;;;6.57;;
25351;SDS011;13304;48.464;8.712;2024-01-07T07:06:40;15.35;;;8.68;;
25351;SDS011;13304;48.464;8.712;2024-01-07T07:09:06;12.25;;;7.50;;
25351;SDS011;13304;48.464;8.712;2024-01-07T07:11:32;11.15;;;6.35;;
25351;SDS011;13304;48.464;8.712;2024-01-07T07:13:58;9.20;;;6.15;;
25351;SDS011;13304;48.464;8.712;2024-01-07T07:16:23;8.55;;;5.85;;
25351;SDS011;13304;48.464;8.712;2024-01-07T07:18:50;10.18;;;6.22;;
25351;SDS011;13304;48.464;8.712;2024-01-07T07:21:16;12.48;;;7.15;;
25351;SDS011;13304;48.464;8.712;2024-01-07T07:23:41;11.20;;;6.80;;
25351;SDS011;13304;48.464;8.712;2024-01-07T07:26:07;10.32;;;6.13;;
25351;SDS011;13304;48.464;8.712;2024-01-07T07:28:33;12.50;;;6.00;;
25351;SDS011;13304;48.464;8.712;2024-01-07T07:30:59;9.25;;;5.70;;
25351;SDS011;13304;48.464;8.712;2024-01-07T07:33:24;7.90;;;4.93;;
25351;SDS011;13304;48.464;8.712;2024-01-07T07:35:50;8.10;;;5.72;;
25351;SDS011;13304;48.464;8.712;2024-01-07T07:38:16;9.30;;;6.10;;
25351;SDS011;13304;48.464;8.712;2024-01-07T07:40:41;8.23;;;5.70;;
25351;SDS011;13304;48.464;8.712;2024-01-07T07:43:08;7.40;;;5.45;;
25351;SDS011;13304;48.464;8.712;2024-01-07T07:45:33;8.52;;;5.53;;
25351;SDS011;13304;48.464;8.712;2024-01-07T07:47:59;10.52;;;6.40;;
25351;SDS011;13304;48.464;8.712;2024-01-07T07:50:25;8.95;;;6.47;;
25351;SDS011;13304;48.464;8.712;2024-01-07T07:52:53;9.43;;;6.70;;
25351;SDS011;13304;48.464;8.712;2024-01-07T07:55:19;7.85;;;6.05;;
25351;SDS011;13304;48.464;8.712;2024-01-07T07:57:44;10.30;;;6.85;;
25351;SDS011;13304;48.464;8.712;2024-01-07T08:00:11;9.55;;;6.40;;
25351;SDS011;13304;48.464;8.712;2024-01-07T08:02:38;15.20;;;7.32;;
25351;SDS011;13304;48.464;8.712;2024-01-07T08:05:04;11.82;;;7.57;;
25351;SDS011;13304;48.464;8.712;2024-01-07T08:07:31;12.32;;;7.85;;
25351;SDS011;13304;48.464;8.712;2024-01-07T08:09:57;10.65;;;7.43;;
25351;SDS011;13304;48.464;8.712;2024-01-07T08:12:22;14.45;;;8.60;;
25351;SDS011;13304;48.464;8.712;2024-01-07T08:14:48;13.95;;;7.82;;
25351;SDS011;13304;48.464;8.712;2024-01-07T08:17:14;14.80;;;8.98;;
25351;SDS011;13304;48.464;8.712;2024-01-07T08:19:40;13.55;;;9.35;;
25351;SDS011;13304;48.464;8.712;2024-01-07T08:22:06;13.85;;;8.65;;
25351;SDS011;13304;48.464;8.712;2024-01-07T08:24:32;14.93;;;8.57;;
25351;SDS011;13304;48.464;8.712;2024-01-07T08:26:57;13.63;;;8.77;;
25351;SDS011;13304;48.464;8.712;2024-01-07T08:29:23;14.70;;;8.30;;
25351;SDS011;13304;48.464;8.712;2024-01-07T08:31:49;21.50;;;9.95;;
25351;SDS011;13304;48.464;8.712;2024-01-07T08:34:15;17.88;;;10.30;;
25351;SDS011;13304;48.464;8.712;2024-01-07T08:36:41;17.42;;;9.40;;
25351;SDS011;13304;48.464;8.712;2024-01-07T08:39:06;16.40;;;9.63;;
25351;SDS011;13304;48.464;8.712;2024-01-07T08:41:33;15.68;;;9.73;;
25351;SDS011;13304;48.464;8.712;2024-01-07T08:43:58;15.95;;;10.10;;
25351;SDS011;13304;48.464;8.712;2024-01-07T08:46:24;17.13;;;11.25;;
25351;SDS011;13304;48.464;8.712;2024-01-07T08:48:50;14.57;;;9.98;;
25351;SDS011;13304;48.464;8.712;2024-01-07T08:51:16;14.93;;;10.25;;
25351;SDS011;13304;48.464;8.712;2024-01-07T08:53:41;18.27;;;9.98;;
25351;SDS011;13304;48.464;8.712;2024-01-07T08:56:07;15.93;;;10.68;;
25351;SDS011;13304;48.464;8.712;2024-01-07T08:58:33;16.13;;;10.18;;
25351;SDS011;13304;48.464;8.712;2024-01-07T09:00:59;16.00;;;9.88;;
25351;SDS011;13304;48.464;8.712;2024-01-07T09:03:25;14.70;;;10.07;;
25351;SDS011;13304;48.464;8.712;2024-01-07T09:05:50;15.05;;;9.82;;
25351;SDS011;13304;48.464;8.712;2024-01-07T09:08:16;13.32;;;9.15;;
25351;SDS011;13304;48.464;8.712;2024-01-07T09:10:42;14.77;;;10.35;;
25351;SDS011;13304;48.464;8.712;2024-01-07T09:13:08;14.82;;;9.07;;
25351;SDS011;13304;48.464;8.712;2024-01-07T09:15:33;16.05;;;8.98;;
25351;SDS011;13304;48.464;8.712;2024-01-07T09:17:59;14.70;;;9.10;;
25351;SDS011;13304;48.464;8.712;2024-01-07T09:20:25;17.45;;;9.70;;
25351;SDS011;13304;48.464;8.712;2024-01-07T09:22:50;16.13;;;9.63;;
25351;SDS011;13304;48.464;8.712;2024-01-07T09:25:16;13.10;;;8.98;;
25351;SDS011;13304;48.464;8.712;2024-01-07T09:27:42;15.65;;;8.88;;
25351;SDS011;13304;48.464;8.712;2024-01-07T09:30:09;14.13;;;8.70;;
25351;SDS011;13304;48.464;8.712;2024-01-07T09:32:43;13.18;;;8.82;;
25351;SDS011;13304;48.464;8.712;2024-01-07T09:35:09;11.55;;;8.38;;
25351;SDS011;13304;48.464;8.712;2024-01-07T09:37:34;14.05;;;9.40;;
25351;SDS011;13304;48.464;8.712;2024-01-07T09:40:01;19.88;;;10.40;;
25351;SDS011;13304;48.464;8.712;2024-01-07T09:42:26;17.85;;;11.23;;
25351;SDS011;13304;48.464;8.712;2024-01-07T09:44:52;17.33;;;10.80;;
25351;SDS011;13304;48.464;8.712;2024-01-07T09:47:18;15.20;;;9.85;;
25351;SDS011;13304;48.464;8.712;2024-01-07T09:49:45;16.88;;;10.07;;
25351;SDS011;13304;48.464;8.712;2024-01-07T09:52:11;16.85;;;8.75;;
25351;SDS011;13304;48.464;8.712;2024-01-07T09:54:39;13.43;;;7.30;;
25351;SDS011;13304;48.464;8.712;2024-01-07T09:57:06;12.82;;;8.00;;
25351;SDS011;13304;48.464;8.712;2024-01-07T09:59:33;10.70;;;7.32;;
25351;SDS011;13304;48.464;8.712;2024-01-07T10:02:01;13.18;;;8.23;;
25351;SDS011;13304;48.464;8.712;2024-01-07T10:04:28;12.70;;;7.68;;
25351;SDS011;13304;48.464;8.712;2024-01-07T10:06:54;13.45;;;8.80;;
25351;SDS011;13304;48.464;8.712;2024-01-07T10:09:24;12.63;;;8.10;;
25351;SDS011;13304;48.464;8.712;2024-01-07T10:11:52;10.90;;;7.38;;
25351;SDS011;13304;48.464;8.712;2024-01-07T10:14:18;15.05;;;8.63;;
25351;SDS011;13304;48.464;8.712;2024-01-07T10:16:47;13.77;;;8.27;;
25351;SDS011;13304;48.464;8.712;2024-01-07T10:19:23;11.77;;;7.50;;
25351;SDS011;13304;48.464;8.712;2024-01-07T10:22:03;10.57;;;6.85;;
25351;SDS011;13304;48.464;8.712;2024-01-07T10:24:36;12.77;;;7.60;;
25351;SDS011;13304;48.464;8.712;2024-01-07T10:27:03;14.23;;;9.13;;
25351;SDS011;13304;48.464;8.712;2024-01-07T10:29:30;14.18;;;8.95;;
25351;SDS011;13304;48.464;8.712;2024-01-07T10:31:59;16.33;;;10.25;;
25351;SDS011;13304;48.464;8.712;2024-01-07T10:34:34;19.85;;;10.18;;
25351;SDS011;13304;48.464;8.712;2024-01-07T10:37:00;14.32;;;9.60;;
25351;SDS011;13304;48.464;8.712;2024-01-07T10:39:28;15.55;;;8.35;;
25351;SDS011;13304;48.464;8.712;2024-01-07T10:41:57;15.10;;;8.80;;
25351;SDS011;13304;48.464;8.712;2024-01-07T10:44:24;13.70;;;8.70;;
25351;SDS011;13304;48.464;8.712;2024-01-07T10:46:51;13.23;;;8.43;;
25351;SDS011;13304;48.464;8.712;2024-01-07T10:49:22;13.50;;;8.32;;
25351;SDS011;13304;48.464;8.712;2024-01-07T10:52:07;14.23;;;8.27;;
25351;SDS011;13304;48.464;8.712;2024-01-07T10:54:34;12.65;;;8.30;;
25351;SDS011;13304;48.464;8.712;2024-01-07T10:57:13;15.02;;;9.10;;
25351;SDS011;13304;48.464;8.712;2024-01-07T11:00:01;13.73;;;8.90;;
25351;SDS011;13304;48.464;8.712;2024-01-07T11:02:39;15.98;;;10.45;;
25351;SDS011;13304;48.464;8.712;2024-01-07T11:05:20;15.98;;;9.43;;
25351;SDS011;13304;48.464;8.712;2024-01-07T11:08:15;15.25;;;8.63;;
25351;SDS011;13304;48.464;8.712;2024-01-07T11:10:53;14.27;;;8.35;;
25351;SDS011;13304;48.464;8.712;2024-01-07T11:13:33;16.70;;;9.10;;
25351;SDS011;13304;48.464;8.712;2024-01-07T11:16:01;16.05;;;9.40;;
25351;SDS011;13304;48.464;8.712;2024-01-07T11:18:27;16.45;;;9.27;;
25351;SDS011;13304;48.464;8.712;2024-01-07T11:23:32;15.13;;;9.18;;
25351;SDS011;13304;48.464;8.712;2024-01-07T11:26:01;17.35;;;9.50;;
25351;SDS011;13304;48.464;8.712;2024-01-07T11:29:01;13.95;;;8.82;;
25351;SDS011;13304;48.464;8.712;2024-01-07T11:34:04;17.30;;;9.63;;
25351;SDS011;13304;48.464;8.712;2024-01-07T11:36:29;12.65;;;8.02;;
25351;SDS011;13304;48.464;8.712;2024-01-07T11:38:56;14.43;;;9.13;;
25351;SDS011;13304;48.464;8.712;2024-01-07T11:41:22;16.08;;;10.07;;
25351;SDS011;13304;48.464;8.712;2024-01-07T11:43:54;16.90;;;9.90;;
25351;SDS011;13304;48.464;8.712;2024-01-07T11:46:22;31.52;;;15.98;;
25351;SDS011;13304;48.464;8.712;2024-01-07T11:48:49;35.55;;;18.05;;
25351;SDS011;13304;48.464;8.712;2024-01-07T11:51:19;18.45;;;11.82;;
25351;SDS011;13304;48.464;8.712;2024-01-07T11:53:46;16.38;;;10.07;;
25351;SDS011;13304;48.464;8.712;2024-01-07T11:56:13;14.70;;;9.40;;
25351;SDS011;13304;48.464;8.712;2024-01-07T11:58:41;16.70;;;10.50;;
25351;SDS011;13304;48.464;8.712;2024-01-07T12:01:07;11.05;;;7.68;;
25351;SDS011;13304;48.464;8.712;2024-01-07T12:03:33;9.73;;;6.50;;
25351;SDS011;13304;48.464;8.712;2024-01-07T12:05:59;10.18;;;7.05;;
25351;SDS011;13304;48.464;8.712;2024-01-07T12:08:25;9.55;;;6.18;;
25351;SDS011;13304;48.464;8.712;2024-01-07T12:10:50;10.07;;;6.50;;
25351;SDS011;13304;48.464;8.712;2024-01-07T12:13:17;11.00;;;6.78;;
25351;SDS011;13304;48.464;8.712;2024-01-07T12:15:43;9.30;;;6.38;;
25351;SDS011;13304;48.464;8.712;2024-01-07T12:18:10;10.43;;;6.13;;
25351;SDS011;13304;48.464;8.712;2024-01-07T12:20:36;8.80;;;6.32;;
25351;SDS011;13304;48.464;8.712;2024-01-07T12:23:08;7.80;;;5.75;;
25351;SDS011;13304;48.464;8.712;2024-01-07T12:25:35;9.90;;;6.13;;
25351;SDS011;13304;48.464;8.712;2024-01-07T12:28:01;11.35;;;6.80;;
25351;SDS011;13304;48.464;8.712;2024-01-07T12:30:31;10.10;;;6.38;;
25351;SDS011;13304;48.464;8.712;2024-01-07T12:32:57;8.45;;;5.78;;
25351;SDS011;13304;48.464;8.712;2024-01-07T12:35:26;10.20;;;6.72;;
25351;SDS011;13304;48.464;8.712;2024-01-07T12:37:52;10.65;;;7.22;;
25351;SDS011;13304;48.464;8.712;2024-01-07T12:40:17;11.32;;;6.88;;
25351;SDS011;13304;48.464;8.712;2024-01-07T12:42:44;10.48;;;7.45;;
25351;SDS011;13304;48.464;8.712;2024-01-07T12:45:13;9.20;;;6.55;;
25351;SDS011;13304;48.464;8.712;2024-01-07T12:47:43;12.38;;;7.82;;
25351;SDS011;13304;48.464;8.712;2024-01-07T12:52:36;11.15;;;7.25;;
25351;SDS011;13304;48.464;8.712;2024-01-07T12:55:03;9.45;;;6.75;;
25351;SDS011;13304;48.464;8.712;2024-01-07T12:57:29;13.02;;;7.70;;
25351;SDS011;13304;48.464;8.712;2024-01-07T12:59:55;12.10;;;7.60;;
25351;SDS011;13304;48.464;8.712;2024-01-07T13:02:20;11.32;;;7.55;;
25351;SDS011;13304;48.464;8.712;2024-01-07T13:04:46;28.10;;;13.63;;
25351;SDS011;13304;48.464;8.712;2024-01-07T13:07:12;63.03;;;25.80;;
25351;SDS011;13304;48.464;8.712;2024-01-07T13:09:37;36.60;;;17.38;;
25351;SDS011;13304;48.464;8.712;2024-01-07T13:12:03;56.97;;;22.98;;
25351;SDS011;13304;48.464;8.712;2024-01-07T13:14:29;183.32;;;51.53;;
25351;SDS011;13304;48.464;8.712;2024-01-07T13:16:55;136.65;;;47.33;;
25351;SDS011;13304;48.464;8.712;2024-01-07T13:19:21;52.03;;;22.42;;
25351;SDS011;13304;48.464;8.712;2024-01-07T13:21:46;93.50;;;31.05;;
25351;SDS011;13304;48.464;8.712;2024-01-07T13:24:12;65.65;;;26.30;;
25351;SDS011;13304;48.464;8.712;2024-01-07T13:26:38;91.13;;;33.92;;
25351;SDS011;13304;48.464;8.712;2024-01-07T13:29:06;43.97;;;20.25;;
25351;SDS011;13304;48.464;8.712;2024-01-07T13:31:31;19.67;;;10.68;;
25351;SDS011;13304;48.464;8.712;2024-01-07T13:33:57;62.58;;;23.15;;
25351;SDS011;13304;48.464;8.712;2024-01-07T13:36:23;96.03;;;35.28;;
25351;SDS011;13304;48.464;8.712;2024-01-07T13:38:48;29.05;;;14.90;;
25351;SDS011;13304;48.464;8.712;2024-01-07T13:41:15;27.13;;;14.43;;
25351;SDS011;13304;48.464;8.712;2024-01-07T13:43:42;16.10;;;10.07;;
25351;SDS011;13304;48.464;8.712;2024-01-07T13:46:07;22.85;;;12.93;;
25351;SDS011;13304;48.464;8.712;2024-01-07T13:48:34;63.00;;;26.27;;
25351;SDS011;13304;48.464;8.712;2024-01-07T13:51:00;37.53;;;18.25;;
25351;SDS011;13304;48.464;8.712;2024-01-07T13:53:25;17.63;;;10.52;;
25351;SDS011;13304;48.464;8.712;2024-01-07T13:55:51;27.10;;;15.00;;
25351;SDS011;13304;48.464;8.712;2024-01-07T13:58:17;17.92;;;10.98;;
25351;SDS011;13304;48.464;8.712;2024-01-07T14:00:44;21.17;;;12.07;;
25351;SDS011;13304;48.464;8.712;2024-01-07T14:03:10;42.72;;;19.88;;
25351;SDS011;13304;48.464;8.712;2024-01-07T14:05:36;21.73;;;12.23;;
25351;SDS011;13304;48.464;8.712;2024-01-07T14:08:02;16.73;;;10.13;;
25351;SDS011;13304;48.464;8.712;2024-01-07T14:10:28;14.90;;;9.68;;
25351;SDS011;13304;48.464;8.712;2024-01-07T14:12:54;19.27;;;11.07;;
25351;SDS011;13304;48.464;8.712;2024-01-07T14:15:19;38.28;;;16.13;;
25351;SDS011;13304;48.464;8.712;2024-01-07T14:17:45;20.77;;;12.50;;
25351;SDS011;13304;48.464;8.712;2024-01-07T14:20:11;14.50;;;9.13;;
25351;SDS011;13304;48.464;8.712;2024-01-07T14:22:36;14.63;;;9.80;;
25351;SDS011;13304;48.464;8.712;2024-01-07T14:25:02;19.08;;;10.73;;
25351;SDS011;13304;48.464;8.712;2024-01-07T14:27:28;17.17;;;10.50;;
25351;SDS011;13304;48.464;8.712;2024-01-07T14:29:54;19.20;;;10.90;;
25351;SDS011;13304;48.464;8.712;2024-01-07T14:32:21;20.40;;;11.95;;
25351;SDS011;13304;48.464;8.712;2024-01-07T14:34:47;21.00;;;11.75;;
25351;SDS011;13304;48.464;8.712;2024-01-07T14:37:14;16.73;;;10.82;;
25351;SDS011;13304;48.464;8.712;2024-01-07T14:39:40;17.92;;;10.88;;
25351;SDS011;13304;48.464;8.712;2024-01-07T14:42:06;15.93;;;9.25;;
25351;SDS011;13304;48.464;8.712;2024-01-07T14:44:32;16.10;;;9.55;;
25351;SDS011;13304;48.464;8.712;2024-01-07T14:46:57;16.08;;;10.20;;